sensor_id;sensor_type;location;lat;lon;timestamp;P1;durP1;ratioP1;P2;durP2;ratioP2
22476;SDS011;65006;51.698;-0.292;2024-02-28T00:00:47;10.20;;;2.47;;
22476;SDS011;65006;51.698;-0.292;2024-02-28T00:03:13;7.47;;;2.45;;
22476;SDS011;65006;51.698;-0.292;2024-02-28T00:05:39;7.97;;;2.60;;
22476;SDS011;65006;51.698;-0.292;2024-02-28T00:08:05;4.88;;;2.25;;
22476;SDS011;65006;51.698;-0.292;2024-02-28T00:10:31;6.95;;;2.45;;
22476;SDS011;65006;51.698;-0.292;2024-02-28T00:12:58;4.35;;;2.30;;
22476;SDS011;65006;51.698;-0.292;2024-02-28T00:17:54;21.35;;;3.05;;
22476;SDS011;65006;51.698;-0.292;2024-02-28T00:20:20;6.72;;;2.80;;
22476;SDS011;65006;51.698;-0.292;2024-02-28T00:22:46;6.82;;;2.38;;
22476;SDS011;65006;51.698;-0.292;2024-02-28T00:25:12;5.43;;;2.25;;
22476;SDS011;65006;51.698;-0.292;2024-02-28T00:30:04;11.30;;;2.53;;
22476;SDS011;65006;51.698;-0.292;2024-02-28T00:32:31;4.70;;;2.30;;
22476;SDS011;65006;51.698;-0.292;2024-02-28T00:34:57;7.13;;;2.67;;
22476;SDS011;65006;51.698;-0.292;2024-02-28T00:37:23;6.55;;;1.92;;
22476;SDS011;65006;51.698;-0.292;2024-02-28T00:39:50;5.75;;;2.25;;
22476;SDS011;65006;51.698;-0.292;2024-02-28T00:42:16;5.82;;;2.63;;
22476;SDS011;65006;51.698;-0.292;2024-02-28T00:44:42;5.30;;;2.80;;
22476;SDS011;65006;51.698;-0.292;2024-02-28T00:47:08;7.32;;;2.95;;
22476;SDS011;65006;51.698;-0.292;2024-02-28T00:49:34;6.82;;;2.78;;
22476;SDS011;65006;51.698;-0.292;2024-02-28T00:52:01;8.20;;;2.33;;
22476;SDS011;65006;51.698;-0.292;2024-02-28T00:54:27;8.85;;;2.50;;
22476;SDS011;65006;51.698;-0.292;2024-02-28T00:56:53;9.93;;;2.63;;
22476;SDS011;65006;51.698;-0.292;2024-02-28T00:59:19;6.15;;;3.05;;
22476;SDS011;65006;51.698;-0.292;2024-02-28T01:01:45;9.52;;;2.92;;
22476;SDS011;65006;51.698;-0.292;2024-02-28T01:04:11;11.15;;;3.30;;
22476;SDS011;65006;51.698;-0.292;2024-02-28T01:06:37;7.18;;;2.20;;
22476;SDS011;65006;51.698;-0.292;2024-02-28T01:09:03;7.38;;;2.53;;
22476;SDS011;65006;51.698;-0.292;2024-02-28T01:11:30;11.27;;;2.75;;
22476;SDS011;65006;51.698;-0.292;2024-02-28T01:13:56;10.75;;;2.92;;
22476;SDS011;65006;51.698;-0.292;2024-02-28T01:16:21;7.40;;;2.60;;
22476;SDS011;65006;51.698;-0.292;2024-02-28T01:18:48;7.50;;;3.10;;
22476;SDS011;65006;51.698;-0.292;2024-02-28T01:21:13;5.93;;;3.42;;
22476;SDS011;65006;51.698;-0.292;2024-02-28T01:23:40;5.47;;;2.63;;
22476;SDS011;65006;51.698;-0.292;2024-02-28T01:26:06;5.82;;;2.65;;
22476;SDS011;65006;51.698;-0.292;2024-02-28T01:28:32;8.80;;;3.15;;
22476;SDS011;65006;51.698;-0.292;2024-02-28T01:30:58;8.05;;;2.58;;
22476;SDS011;65006;51.698;-0.292;2024-02-28T01:33:25;5.05;;;3.35;;
22476;SDS011;65006;51.698;-0.292;2024-02-28T01:35:51;12.23;;;2.90;;
22476;SDS011;65006;51.698;-0.292;2024-02-28T01:38:17;7.95;;;3.05;;
22476;SDS011;65006;51.698;-0.292;2024-02-28T01:40:46;12.00;;;3.17;;
22476;SDS011;65006;51.698;-0.292;2024-02-28T01:43:12;11.20;;;3.33;;
22476;SDS011;65006;51.698;-0.292;2024-02-28T01:45:38;9.50;;;3.70;;
22476;SDS011;65006;51.698;-0.292;2024-02-28T01:48:06;8.38;;;3.80;;
22476;SDS011;65006;51.698;-0.292;2024-02-28T01:50:32;9.90;;;3.85;;
22476;SDS011;65006;51.698;-0.292;2024-02-28T01:52:59;10.77;;;3.75;;
22476;SDS011;65006;51.698;-0.292;2024-02-28T01:55:25;7.50;;;3.25;;
22476;SDS011;65006;51.698;-0.292;2024-02-28T01:57:52;11.07;;;3.80;;
22476;SDS011;65006;51.698;-0.292;2024-02-28T02:00:19;12.18;;;3.40;;
22476;SDS011;65006;51.698;-0.292;2024-02-28T02:02:45;8.43;;;3.88;;
22476;SDS011;65006;51.698;-0.292;2024-02-28T02:05:11;7.93;;;3.50;;
22476;SDS011;65006;51.698;-0.292;2024-02-28T02:07:37;7.63;;;3.55;;
22476;SDS011;65006;51.698;-0.292;2024-02-28T02:10:04;6.88;;;3.88;;
22476;SDS011;65006;51.698;-0.292;2024-02-28T02:12:33;12.23;;;3.75;;
22476;SDS011;65006;51.698;-0.292;2024-02-28T02:14:59;14.27;;;4.47;;
22476;SDS011;65006;51.698;-0.292;2024-02-28T02:17:25;13.13;;;4.55;;
22476;SDS011;65006;51.698;-0.292;2024-02-28T02:19:52;7.90;;;4.10;;
22476;SDS011;65006;51.698;-0.292;2024-02-28T02:22:19;8.55;;;4.20;;
22476;SDS011;65006;51.698;-0.292;2024-02-28T02:24:46;6.45;;;3.70;;
22476;SDS011;65006;51.698;-0.292;2024-02-28T02:27:12;5.53;;;3.63;;
22476;SDS011;65006;51.698;-0.292;2024-02-28T02:29:38;6.50;;;3.88;;
22476;SDS011;65006;51.698;-0.292;2024-02-28T02:32:04;8.15;;;4.30;;
22476;SDS011;65006;51.698;-0.292;2024-02-28T02:34:30;7.45;;;4.35;;
22476;SDS011;65006;51.698;-0.292;2024-02-28T02:36:56;9.35;;;4.68;;
22476;SDS011;65006;51.698;-0.292;2024-02-28T02:39:23;10.02;;;4.40;;
22476;SDS011;65006;51.698;-0.292;2024-02-28T02:41:49;12.88;;;4.38;;
22476;SDS011;65006;51.698;-0.292;2024-02-28T02:44:15;17.10;;;4.70;;
22476;SDS011;65006;51.698;-0.292;2024-02-28T02:46:41;7.65;;;4.03;;
22476;SDS011;65006;51.698;-0.292;2024-02-28T02:49:08;12.57;;;4.40;;
22476;SDS011;65006;51.698;-0.292;2024-02-28T02:51:34;10.88;;;5.32;;
22476;SDS011;65006;51.698;-0.292;2024-02-28T02:54:00;10.38;;;4.65;;
22476;SDS011;65006;51.698;-0.292;2024-02-28T02:56:26;11.95;;;4.35;;
22476;SDS011;65006;51.698;-0.292;2024-02-28T02:58:52;8.32;;;4.47;;
22476;SDS011;65006;51.698;-0.292;2024-02-28T03:01:18;7.10;;;4.00;;
22476;SDS011;65006;51.698;-0.292;2024-02-28T03:03:45;9.40;;;4.22;;
22476;SDS011;65006;51.698;-0.292;2024-02-28T03:06:11;14.48;;;4.95;;
22476;SDS011;65006;51.698;-0.292;2024-02-28T03:08:37;10.95;;;4.68;;
22476;SDS011;65006;51.698;-0.292;2024-02-28T03:11:03;7.43;;;3.95;;
22476;SDS011;65006;51.698;-0.292;2024-02-28T03:13:32;10.38;;;4.38;;
22476;SDS011;65006;51.698;-0.292;2024-02-28T03:15:58;14.77;;;4.85;;
22476;SDS011;65006;51.698;-0.292;2024-02-28T03:18:24;12.00;;;4.63;;
22476;SDS011;65006;51.698;-0.292;2024-02-28T03:20:50;14.15;;;5.28;;
22476;SDS011;65006;51.698;-0.292;2024-02-28T03:23:16;8.93;;;4.85;;
22476;SDS011;65006;51.698;-0.292;2024-02-28T03:25:42;8.70;;;4.93;;
22476;SDS011;65006;51.698;-0.292;2024-02-28T03:28:08;12.23;;;5.20;;
22476;SDS011;65006;51.698;-0.292;2024-02-28T03:30:34;11.18;;;5.25;;
22476;SDS011;65006;51.698;-0.292;2024-02-28T03:33:00;12.27;;;4.88;;
22476;SDS011;65006;51.698;-0.292;2024-02-28T03:35:25;16.90;;;5.30;;
22476;SDS011;65006;51.698;-0.292;2024-02-28T03:37:51;8.00;;;4.53;;
22476;SDS011;65006;51.698;-0.292;2024-02-28T03:40:17;13.93;;;5.68;;
22476;SDS011;65006;51.698;-0.292;2024-02-28T03:42:43;17.33;;;5.40;;
22476;SDS011;65006;51.698;-0.292;2024-02-28T03:45:10;20.55;;;5.57;;
22476;SDS011;65006;51.698;-0.292;2024-02-28T03:47:36;15.35;;;5.20;;
22476;SDS011;65006;51.698;-0.292;2024-02-28T03:50:03;21.02;;;6.70;;
22476;SDS011;65006;51.698;-0.292;2024-02-28T03:52:29;20.17;;;6.03;;
22476;SDS011;65006;51.698;-0.292;2024-02-28T03:54:55;13.00;;;6.07;;
22476;SDS011;65006;51.698;-0.292;2024-02-28T03:57:22;18.23;;;5.35;;
22476;SDS011;65006;51.698;-0.292;2024-02-28T03:59:48;16.90;;;5.63;;
22476;SDS011;65006;51.698;-0.292;2024-02-28T04:02:14;11.43;;;5.97;;
22476;SDS011;65006;51.698;-0.292;2024-02-28T04:04:40;12.98;;;5.82;;
22476;SDS011;65006;51.698;-0.292;2024-02-28T04:07:07;14.27;;;5.68;;
22476;SDS011;65006;51.698;-0.292;2024-02-28T04:09:33;21.95;;;5.72;;
22476;SDS011;65006;51.698;-0.292;2024-02-28T04:11:59;21.95;;;5.75;;
22476;SDS011;65006;51.698;-0.292;2024-02-28T04:14:25;12.15;;;5.72;;
22476;SDS011;65006;51.698;-0.292;2024-02-28T04:16:51;14.52;;;5.97;;
22476;SDS011;65006;51.698;-0.292;2024-02-28T04:19:17;16.52;;;6.30;;
22476;SDS011;65006;51.698;-0.292;2024-02-28T04:21:43;13.82;;;6.43;;
22476;SDS011;65006;51.698;-0.292;2024-02-28T04:24:09;12.23;;;5.90;;
22476;SDS011;65006;51.698;-0.292;2024-02-28T04:26:35;11.77;;;5.22;;
22476;SDS011;65006;51.698;-0.292;2024-02-28T04:29:01;15.40;;;6.20;;
22476;SDS011;65006;51.698;-0.292;2024-02-28T04:31:32;13.25;;;5.72;;
22476;SDS011;65006;51.698;-0.292;2024-02-28T04:33:58;15.00;;;5.68;;
22476;SDS011;65006;51.698;-0.292;2024-02-28T04:36:24;13.55;;;5.95;;
22476;SDS011;65006;51.698;-0.292;2024-02-28T04:38:50;15.93;;;5.85;;
22476;SDS011;65006;51.698;-0.292;2024-02-28T04:41:16;16.45;;;5.50;;
22476;SDS011;65006;51.698;-0.292;2024-02-28T04:43:42;20.52;;;7.00;;
22476;SDS011;65006;51.698;-0.292;2024-02-28T04:46:08;13.40;;;5.43;;
22476;SDS011;65006;51.698;-0.292;2024-02-28T04:48:34;16.50;;;6.60;;
22476;SDS011;65006;51.698;-0.292;2024-02-28T04:51:01;16.75;;;6.30;;
22476;SDS011;65006;51.698;-0.292;2024-02-28T04:55:53;12.55;;;6.18;;
22476;SDS011;65006;51.698;-0.292;2024-02-28T04:58:19;12.20;;;5.18;;
22476;SDS011;65006;51.698;-0.292;2024-02-28T05:00:45;14.48;;;5.43;;
22476;SDS011;65006;51.698;-0.292;2024-02-28T05:03:11;11.90;;;5.80;;
22476;SDS011;65006;51.698;-0.292;2024-02-28T05:05:37;10.82;;;5.13;;
22476;SDS011;65006;51.698;-0.292;2024-02-28T05:08:04;12.68;;;5.53;;
22476;SDS011;65006;51.698;-0.292;2024-02-28T05:10:30;20.30;;;5.72;;
22476;SDS011;65006;51.698;-0.292;2024-02-28T05:15:22;31.92;;;7.72;;
22476;SDS011;65006;51.698;-0.292;2024-02-28T05:17:50;20.55;;;7.28;;
22476;SDS011;65006;51.698;-0.292;2024-02-28T05:20:17;26.98;;;7.35;;
22476;SDS011;65006;51.698;-0.292;2024-02-28T05:22:43;52.63;;;8.10;;
22476;SDS011;65006;51.698;-0.292;2024-02-28T05:25:09;32.55;;;7.05;;
22476;SDS011;65006;51.698;-0.292;2024-02-28T05:27:36;41.20;;;8.63;;
22476;SDS011;65006;51.698;-0.292;2024-02-28T05:30:02;22.95;;;7.18;;
22476;SDS011;65006;51.698;-0.292;2024-02-28T05:32:31;34.95;;;8.95;;
22476;SDS011;65006;51.698;-0.292;2024-02-28T05:34:58;15.82;;;5.97;;
22476;SDS011;65006;51.698;-0.292;2024-02-28T05:37:24;33.90;;;6.55;;
22476;SDS011;65006;51.698;-0.292;2024-02-28T05:39:50;23.02;;;7.43;;
22476;SDS011;65006;51.698;-0.292;2024-02-28T05:42:17;23.80;;;5.63;;
22476;SDS011;65006;51.698;-0.292;2024-02-28T05:44:50;22.55;;;6.10;;
22476;SDS011;65006;51.698;-0.292;2024-02-28T05:47:16;14.38;;;5.90;;
22476;SDS011;65006;51.698;-0.292;2024-02-28T05:49:42;21.58;;;5.75;;
22476;SDS011;65006;51.698;-0.292;2024-02-28T05:52:09;15.38;;;6.90;;
22476;SDS011;65006;51.698;-0.292;2024-02-28T05:54:35;20.52;;;6.43;;
22476;SDS011;65006;51.698;-0.292;2024-02-28T05:57:02;14.68;;;6.00;;
22476;SDS011;65006;51.698;-0.292;2024-02-28T05:59:28;17.00;;;6.75;;
22476;SDS011;65006;51.698;-0.292;2024-02-28T06:01:54;28.83;;;7.93;;
22476;SDS011;65006;51.698;-0.292;2024-02-28T06:04:20;21.02;;;7.10;;
22476;SDS011;65006;51.698;-0.292;2024-02-28T06:06:46;22.27;;;6.72;;
22476;SDS011;65006;51.698;-0.292;2024-02-28T06:09:14;16.67;;;6.63;;
22476;SDS011;65006;51.698;-0.292;2024-02-28T06:11:40;19.60;;;7.13;;
22476;SDS011;65006;51.698;-0.292;2024-02-28T06:14:06;19.42;;;7.68;;
22476;SDS011;65006;51.698;-0.292;2024-02-28T06:16:32;16.85;;;7.05;;
22476;SDS011;65006;51.698;-0.292;2024-02-28T06:18:58;22.30;;;7.78;;
22476;SDS011;65006;51.698;-0.292;2024-02-28T06:21:24;19.08;;;7.40;;
22476;SDS011;65006;51.698;-0.292;2024-02-28T06:23:50;15.80;;;6.75;;
22476;SDS011;65006;51.698;-0.292;2024-02-28T06:26:16;21.52;;;7.70;;
22476;SDS011;65006;51.698;-0.292;2024-02-28T06:28:43;25.15;;;8.40;;
22476;SDS011;65006;51.698;-0.292;2024-02-28T06:31:14;24.27;;;8.23;;
22476;SDS011;65006;51.698;-0.292;2024-02-28T06:33:40;22.30;;;9.00;;
22476;SDS011;65006;51.698;-0.292;2024-02-28T06:36:06;27.10;;;7.97;;
22476;SDS011;65006;51.698;-0.292;2024-02-28T06:38:32;25.77;;;8.82;;
22476;SDS011;65006;51.698;-0.292;2024-02-28T06:41:00;33.67;;;10.48;;
22476;SDS011;65006;51.698;-0.292;2024-02-28T06:45:52;27.45;;;8.98;;
22476;SDS011;65006;51.698;-0.292;2024-02-28T06:48:18;33.22;;;10.00;;
22476;SDS011;65006;51.698;-0.292;2024-02-28T06:50:44;32.33;;;9.43;;
22476;SDS011;65006;51.698;-0.292;2024-02-28T06:53:10;40.35;;;11.23;;
22476;SDS011;65006;51.698;-0.292;2024-02-28T06:55:38;31.98;;;9.85;;
22476;SDS011;65006;51.698;-0.292;2024-02-28T06:58:04;37.38;;;10.55;;
22476;SDS011;65006;51.698;-0.292;2024-02-28T07:00:30;32.30;;;11.23;;
22476;SDS011;65006;51.698;-0.292;2024-02-28T07:02:56;50.28;;;12.75;;
22476;SDS011;65006;51.698;-0.292;2024-02-28T07:05:22;42.13;;;12.30;;
22476;SDS011;65006;51.698;-0.292;2024-02-28T07:07:48;43.13;;;11.93;;
22476;SDS011;65006;51.698;-0.292;2024-02-28T07:10:14;77.93;;;14.48;;
22476;SDS011;65006;51.698;-0.292;2024-02-28T07:12:40;56.47;;;11.60;;
22476;SDS011;65006;51.698;-0.292;2024-02-28T07:15:06;33.47;;;11.63;;
22476;SDS011;65006;51.698;-0.292;2024-02-28T07:17:32;41.95;;;11.50;;
22476;SDS011;65006;51.698;-0.292;2024-02-28T07:19:58;48.33;;;11.32;;
22476;SDS011;65006;51.698;-0.292;2024-02-28T07:22:24;44.08;;;12.27;;
22476;SDS011;65006;51.698;-0.292;2024-02-28T07:24:50;39.45;;;11.40;;
22476;SDS011;65006;51.698;-0.292;2024-02-28T07:27:16;49.70;;;11.43;;
22476;SDS011;65006;51.698;-0.292;2024-02-28T07:29:43;47.50;;;11.90;;
22476;SDS011;65006;51.698;-0.292;2024-02-28T07:32:09;36.30;;;11.38;;
22476;SDS011;65006;51.698;-0.292;2024-02-28T07:34:35;32.97;;;11.52;;
22476;SDS011;65006;51.698;-0.292;2024-02-28T07:37:01;41.40;;;11.95;;
22476;SDS011;65006;51.698;-0.292;2024-02-28T07:39:27;37.85;;;11.85;;
22476;SDS011;65006;51.698;-0.292;2024-02-28T07:41:53;41.30;;;11.63;;
22476;SDS011;65006;51.698;-0.292;2024-02-28T07:44:19;38.55;;;11.65;;
22476;SDS011;65006;51.698;-0.292;2024-02-28T07:46:45;38.90;;;11.07;;
22476;SDS011;65006;51.698;-0.292;2024-02-28T07:49:11;42.08;;;12.05;;
22476;SDS011;65006;51.698;-0.292;2024-02-28T07:51:37;36.90;;;11.25;;
22476;SDS011;65006;51.698;-0.292;2024-02-28T07:54:05;38.45;;;11.20;;
22476;SDS011;65006;51.698;-0.292;2024-02-28T07:56:31;32.35;;;10.85;;
22476;SDS011;65006;51.698;-0.292;2024-02-28T07:58:58;33.03;;;11.52;;
22476;SDS011;65006;51.698;-0.292;2024-02-28T08:01:24;31.83;;;10.90;;
22476;SDS011;65006;51.698;-0.292;2024-02-28T08:03:50;38.72;;;10.70;;
22476;SDS011;65006;51.698;-0.292;2024-02-28T08:06:16;27.48;;;9.63;;
22476;SDS011;65006;51.698;-0.292;2024-02-28T08:08:45;32.20;;;9.50;;
22476;SDS011;65006;51.698;-0.292;2024-02-28T08:11:11;32.45;;;9.18;;
22476;SDS011;65006;51.698;-0.292;2024-02-28T08:13:38;23.33;;;8.43;;
22476;SDS011;65006;51.698;-0.292;2024-02-28T08:16:04;34.28;;;9.38;;
22476;SDS011;65006;51.698;-0.292;2024-02-28T08:18:33;22.58;;;8.43;;
22476;SDS011;65006;51.698;-0.292;2024-02-28T08:21:01;25.70;;;7.97;;
22476;SDS011;65006;51.698;-0.292;2024-02-28T08:23:29;22.63;;;8.30;;
22476;SDS011;65006;51.698;-0.292;2024-02-28T08:25:57;25.75;;;8.60;;
22476;SDS011;65006;51.698;-0.292;2024-02-28T08:28:23;22.73;;;7.55;;
22476;SDS011;65006;51.698;-0.292;2024-02-28T08:30:49;19.92;;;7.20;;
22476;SDS011;65006;51.698;-0.292;2024-02-28T08:33:16;16.05;;;7.05;;
22476;SDS011;65006;51.698;-0.292;2024-02-28T08:35:42;15.85;;;6.35;;
22476;SDS011;65006;51.698;-0.292;2024-02-28T08:38:08;19.20;;;7.38;;
22476;SDS011;65006;51.698;-0.292;2024-02-28T08:40:34;17.77;;;6.88;;
22476;SDS011;65006;51.698;-0.292;2024-02-28T08:43:00;26.13;;;7.32;;
22476;SDS011;65006;51.698;-0.292;2024-02-28T08:45:26;15.02;;;6.35;;
22476;SDS011;65006;51.698;-0.292;2024-02-28T08:47:52;20.08;;;6.95;;
22476;SDS011;65006;51.698;-0.292;2024-02-28T08:50:18;18.20;;;7.13;;
22476;SDS011;65006;51.698;-0.292;2024-02-28T08:52:44;19.33;;;6.90;;
22476;SDS011;65006;51.698;-0.292;2024-02-28T08:55:10;14.63;;;6.38;;
22476;SDS011;65006;51.698;-0.292;2024-02-28T08:57:36;13.20;;;5.80;;
22476;SDS011;65006;51.698;-0.292;2024-02-28T09:00:03;15.70;;;5.60;;
22476;SDS011;65006;51.698;-0.292;2024-02-28T09:02:29;12.75;;;5.65;;
22476;SDS011;65006;51.698;-0.292;2024-02-28T09:04:55;12.23;;;5.43;;
22476;SDS011;65006;51.698;-0.292;2024-02-28T09:07:21;15.23;;;6.07;;
22476;SDS011;65006;51.698;-0.292;2024-02-28T09:09:49;18.30;;;5.28;;
22476;SDS011;65006;51.698;-0.292;2024-02-28T09:12:15;11.85;;;5.95;;
22476;SDS011;65006;51.698;-0.292;2024-02-28T09:14:41;13.57;;;5.18;;
22476;SDS011;65006;51.698;-0.292;2024-02-28T09:17:07;13.80;;;5.03;;
22476;SDS011;65006;51.698;-0.292;2024-02-28T09:19:33;9.25;;;4.30;;
22476;SDS011;65006;51.698;-0.292;2024-02-28T09:21:59;9.32;;;4.43;;
22476;SDS011;65006;51.698;-0.292;2024-02-28T09:24:26;12.77;;;4.47;;
22476;SDS011;65006;51.698;-0.292;2024-02-28T09:26:52;13.32;;;4.97;;
22476;SDS011;65006;51.698;-0.292;2024-02-28T09:29:18;8.02;;;4.13;;
22476;SDS011;65006;51.698;-0.292;2024-02-28T09:31:44;11.77;;;4.60;;
22476;SDS011;65006;51.698;-0.292;2024-02-28T09:34:11;12.65;;;4.38;;
22476;SDS011;65006;51.698;-0.292;2024-02-28T09:36:41;9.98;;;4.78;;
22476;SDS011;65006;51.698;-0.292;2024-02-28T09:39:07;17.88;;;4.45;;
22476;SDS011;65006;51.698;-0.292;2024-02-28T09:41:33;12.32;;;4.75;;
22476;SDS011;65006;51.698;-0.292;2024-02-28T09:44:00;11.85;;;4.60;;
22476;SDS011;65006;51.698;-0.292;2024-02-28T09:48:52;9.75;;;3.85;;
22476;SDS011;65006;51.698;-0.292;2024-02-28T09:51:18;10.10;;;3.55;;
22476;SDS011;65006;51.698;-0.292;2024-02-28T09:53:47;10.70;;;4.28;;
22476;SDS011;65006;51.698;-0.292;2024-02-28T09:56:13;9.13;;;4.00;;
22476;SDS011;65006;51.698;-0.292;2024-02-28T09:58:40;7.40;;;3.83;;
22476;SDS011;65006;51.698;-0.292;2024-02-28T10:01:07;7.68;;;3.75;;
22476;SDS011;65006;51.698;-0.292;2024-02-28T10:03:34;6.55;;;3.83;;
22476;SDS011;65006;51.698;-0.292;2024-02-28T10:06:01;7.97;;;4.07;;
22476;SDS011;65006;51.698;-0.292;2024-02-28T10:08:27;8.25;;;3.53;;
22476;SDS011;65006;51.698;-0.292;2024-02-28T10:13:21;13.95;;;4.07;;
22476;SDS011;65006;51.698;-0.292;2024-02-28T10:15:50;7.72;;;3.40;;
22476;SDS011;65006;51.698;-0.292;2024-02-28T10:18:16;8.10;;;3.78;;
22476;SDS011;65006;51.698;-0.292;2024-02-28T10:20:42;10.25;;;3.65;;
22476;SDS011;65006;51.698;-0.292;2024-02-28T10:23:08;6.18;;;3.10;;
22476;SDS011;65006;51.698;-0.292;2024-02-28T10:25:45;9.63;;;3.35;;
22476;SDS011;65006;51.698;-0.292;2024-02-28T10:28:14;7.95;;;3.40;;
22476;SDS011;65006;51.698;-0.292;2024-02-28T10:30:41;4.55;;;2.35;;
22476;SDS011;65006;51.698;-0.292;2024-02-28T10:33:11;8.43;;;2.85;;
22476;SDS011;65006;51.698;-0.292;2024-02-28T10:35:40;14.32;;;2.92;;
22476;SDS011;65006;51.698;-0.292;2024-02-28T10:38:10;10.32;;;2.28;;
22476;SDS011;65006;51.698;-0.292;2024-02-28T10:43:02;10.20;;;2.20;;
22476;SDS011;65006;51.698;-0.292;2024-02-28T10:45:30;9.43;;;2.33;;
22476;SDS011;65006;51.698;-0.292;2024-02-28T10:47:57;7.88;;;2.88;;
22476;SDS011;65006;51.698;-0.292;2024-02-28T10:50:23;10.02;;;1.95;;
22476;SDS011;65006;51.698;-0.292;2024-02-28T10:52:49;7.70;;;1.92;;
22476;SDS011;65006;51.698;-0.292;2024-02-28T10:55:22;7.55;;;2.20;;
22476;SDS011;65006;51.698;-0.292;2024-02-28T10:57:50;5.38;;;2.30;;
22476;SDS011;65006;51.698;-0.292;2024-02-28T11:00:21;12.68;;;2.33;;
22476;SDS011;65006;51.698;-0.292;2024-02-28T11:02:47;9.13;;;2.50;;
22476;SDS011;65006;51.698;-0.292;2024-02-28T11:05:15;5.97;;;1.65;;
22476;SDS011;65006;51.698;-0.292;2024-02-28T11:07:41;5.93;;;2.20;;
22476;SDS011;65006;51.698;-0.292;2024-02-28T11:10:08;10.20;;;2.38;;
22476;SDS011;65006;51.698;-0.292;2024-02-28T11:12:35;7.25;;;1.95;;
22476;SDS011;65006;51.698;-0.292;2024-02-28T11:15:03;7.13;;;2.63;;
22476;SDS011;65006;51.698;-0.292;2024-02-28T11:17:31;10.10;;;2.05;;
22476;SDS011;65006;51.698;-0.292;2024-02-28T11:22:24;10.43;;;2.08;;
22476;SDS011;65006;51.698;-0.292;2024-02-28T11:24:53;8.52;;;2.05;;
22476;SDS011;65006;51.698;-0.292;2024-02-28T11:27:19;8.55;;;2.08;;
22476;SDS011;65006;51.698;-0.292;2024-02-28T11:29:45;13.20;;;2.42;;
22476;SDS011;65006;51.698;-0.292;2024-02-28T11:32:12;5.82;;;2.00;;
22476;SDS011;65006;51.698;-0.292;2024-02-28T11:34:39;8.43;;;1.70;;
22476;SDS011;65006;51.698;-0.292;2024-02-28T11:37:05;9.80;;;1.77;;
22476;SDS011;65006;51.698;-0.292;2024-02-28T11:42:14;8.82;;;2.25;;
22476;SDS011;65006;51.698;-0.292;2024-02-28T11:44:41;12.98;;;2.00;;
22476;SDS011;65006;51.698;-0.292;2024-02-28T11:47:08;4.60;;;1.55;;
22476;SDS011;65006;51.698;-0.292;2024-02-28T11:49:38;6.28;;;1.67;;
22476;SDS011;65006;51.698;-0.292;2024-02-28T11:52:04;9.43;;;1.52;;
22476;SDS011;65006;51.698;-0.292;2024-02-28T11:54:30;6.35;;;1.67;;
22476;SDS011;65006;51.698;-0.292;2024-02-28T11:56:56;9.23;;;1.85;;
22476;SDS011;65006;51.698;-0.292;2024-02-28T11:59:23;6.50;;;1.73;;
22476;SDS011;65006;51.698;-0.292;2024-02-28T12:01:49;7.15;;;1.40;;
22476;SDS011;65006;51.698;-0.292;2024-02-28T12:04:17;10.88;;;1.80;;
22476;SDS011;65006;51.698;-0.292;2024-02-28T12:06:43;10.60;;;1.80;;
22476;SDS011;65006;51.698;-0.292;2024-02-28T12:09:10;8.90;;;2.05;;
22476;SDS011;65006;51.698;-0.292;2024-02-28T12:11:39;7.97;;;1.48;;
22476;SDS011;65006;51.698;-0.292;2024-02-28T12:14:08;8.43;;;1.67;;
22476;SDS011;65006;51.698;-0.292;2024-02-28T12:16:38;12.70;;;2.20;;
22476;SDS011;65006;51.698;-0.292;2024-02-28T12:19:08;15.13;;;1.75;;
22476;SDS011;65006;51.698;-0.292;2024-02-28T12:21:34;6.40;;;1.85;;
22476;SDS011;65006;51.698;-0.292;2024-02-28T12:24:00;9.98;;;1.45;;
22476;SDS011;65006;51.698;-0.292;2024-02-28T12:26:27;13.82;;;2.17;;
22476;SDS011;65006;51.698;-0.292;2024-02-28T12:28:53;10.23;;;1.52;;
22476;SDS011;65006;51.698;-0.292;2024-02-28T12:31:19;11.85;;;1.67;;
22476;SDS011;65006;51.698;-0.292;2024-02-28T12:33:46;12.25;;;2.08;;
22476;SDS011;65006;51.698;-0.292;2024-02-28T12:36:12;7.55;;;1.40;;
22476;SDS011;65006;51.698;-0.292;2024-02-28T12:38:39;7.68;;;1.63;;
22476;SDS011;65006;51.698;-0.292;2024-02-28T12:41:06;6.90;;;1.95;;
22476;SDS011;65006;51.698;-0.292;2024-02-28T12:43:32;6.18;;;1.58;;
22476;SDS011;65006;51.698;-0.292;2024-02-28T12:45:58;6.05;;;1.90;;
22476;SDS011;65006;51.698;-0.292;2024-02-28T12:48:24;6.30;;;1.27;;
22476;SDS011;65006;51.698;-0.292;2024-02-28T12:50:50;6.35;;;0.93;;
22476;SDS011;65006;51.698;-0.292;2024-02-28T12:53:16;6.65;;;1.33;;
22476;SDS011;65006;51.698;-0.292;2024-02-28T12:55:42;8.02;;;1.17;;
22476;SDS011;65006;51.698;-0.292;2024-02-28T12:58:10;9.52;;;1.88;;
22476;SDS011;65006;51.698;-0.292;2024-02-28T13:00:36;5.15;;;1.13;;
22476;SDS011;65006;51.698;-0.292;2024-02-28T13:03:02;4.35;;;1.17;;
22476;SDS011;65006;51.698;-0.292;2024-02-28T13:05:28;5.28;;;1.23;;
22476;SDS011;65006;51.698;-0.292;2024-02-28T13:07:54;5.97;;;1.30;;
22476;SDS011;65006;51.698;-0.292;2024-02-28T13:10:20;6.38;;;1.23;;
22476;SDS011;65006;51.698;-0.292;2024-02-28T13:12:47;6.60;;;1.20;;
22476;SDS011;65006;51.698;-0.292;2024-02-28T13:15:13;6.28;;;1.38;;
22476;SDS011;65006;51.698;-0.292;2024-02-28T13:17:39;7.10;;;1.67;;
22476;SDS011;65006;51.698;-0.292;2024-02-28T13:20:06;3.33;;;1.05;;
22476;SDS011;65006;51.698;-0.292;2024-02-28T13:22:33;4.80;;;1.10;;
22476;SDS011;65006;51.698;-0.292;2024-02-28T13:24:59;3.97;;;1.10;;
22476;SDS011;65006;51.698;-0.292;2024-02-28T13:27:25;5.78;;;0.90;;
22476;SDS011;65006;51.698;-0.292;2024-02-28T13:29:51;9.23;;;1.10;;
22476;SDS011;65006;51.698;-0.292;2024-02-28T13:32:17;8.98;;;1.13;;
22476;SDS011;65006;51.698;-0.292;2024-02-28T13:34:43;3.08;;;0.90;;
22476;SDS011;65006;51.698;-0.292;2024-02-28T13:37:10;6.93;;;1.00;;
22476;SDS011;65006;51.698;-0.292;2024-02-28T13:39:37;8.45;;;1.45;;
22476;SDS011;65006;51.698;-0.292;2024-02-28T13:42:03;5.40;;;0.95;;
22476;SDS011;65006;51.698;-0.292;2024-02-28T13:44:31;5.03;;;0.90;;
22476;SDS011;65006;51.698;-0.292;2024-02-28T13:46:59;4.97;;;1.02;;
22476;SDS011;65006;51.698;-0.292;2024-02-28T13:49:25;6.18;;;1.33;;
22476;SDS011;65006;51.698;-0.292;2024-02-28T13:51:51;8.32;;;0.95;;
22476;SDS011;65006;51.698;-0.292;2024-02-28T13:54:17;3.83;;;1.67;;
22476;SDS011;65006;51.698;-0.292;2024-02-28T13:56:46;7.57;;;1.10;;
22476;SDS011;65006;51.698;-0.292;2024-02-28T13:59:11;5.70;;;0.88;;
22476;SDS011;65006;51.698;-0.292;2024-02-28T14:01:38;3.92;;;1.13;;
22476;SDS011;65006;51.698;-0.292;2024-02-28T14:04:04;5.20;;;1.17;;
22476;SDS011;65006;51.698;-0.292;2024-02-28T14:06:32;6.00;;;1.50;;
22476;SDS011;65006;51.698;-0.292;2024-02-28T14:08:59;3.80;;;1.25;;
22476;SDS011;65006;51.698;-0.292;2024-02-28T14:11:25;5.75;;;1.60;;
22476;SDS011;65006;51.698;-0.292;2024-02-28T14:13:51;5.50;;;1.73;;
22476;SDS011;65006;51.698;-0.292;2024-02-28T14:16:17;7.55;;;1.50;;
22476;SDS011;65006;51.698;-0.292;2024-02-28T14:18:44;8.88;;;1.75;;
22476;SDS011;65006;51.698;-0.292;2024-02-28T14:21:10;6.65;;;1.65;;
22476;SDS011;65006;51.698;-0.292;2024-02-28T14:23:36;4.15;;;1.25;;
22476;SDS011;65006;51.698;-0.292;2024-02-28T14:26:02;3.63;;;1.05;;
22476;SDS011;65006;51.698;-0.292;2024-02-28T14:28:28;9.88;;;1.30;;
22476;SDS011;65006;51.698;-0.292;2024-02-28T14:30:54;3.35;;;1.02;;
22476;SDS011;65006;51.698;-0.292;2024-02-28T14:33:20;7.07;;;1.27;;
22476;SDS011;65006;51.698;-0.292;2024-02-28T14:35:46;4.22;;;1.10;;
22476;SDS011;65006;51.698;-0.292;2024-02-28T14:38:13;5.15;;;1.15;;
22476;SDS011;65006;51.698;-0.292;2024-02-28T14:40:39;6.93;;;1.05;;
22476;SDS011;65006;51.698;-0.292;2024-02-28T14:43:06;3.78;;;0.98;;
22476;SDS011;65006;51.698;-0.292;2024-02-28T14:45:33;7.50;;;1.17;;